Air Navigation Services of Czech Republic
Airport: LKLN Updated:  21.01.2020 22:25:26  UTC
 METAR LKLN 21.01. 22:30 ...
METAR LKLN 212230Z AUTO 18004KT 5000 BR OVC004 M03/M03 Q1037=